Rock Quarry, Louisiana
Current Conditions -  °F | °C
As of 9:53 PM on Sunday 23 Nov 2014 (Local Time) from KAEX Reporting Station
Clear Clear  
Wind Chill: 64°   Ceiling: Unl
Heat Index: 64°   Visibility: 10mi
Dew Point: 58°   Wind: 13mph
Humidity: 80%   Direction: 210°SSW
Pressure: 29.63"   Gusts: NA
Location:  31.4254°N, 92.7765°W
Report Text: KAEX 240353Z AUTO 21011KT 10SM CLR 18/14 A2963 RMK AO2 SLP038 T01780144
Loading
Personal Weather Stations






























Interactive Weather Map New forecast layout! Learn more

10-Day Weather Forecast

Advertisements
Track Severe Weather on mobile